DLH1003 EHAM-EDDF
Flight info
| Callsign | DLH1003 |
|---|---|
| Flight time | 0h 58m |
| Altitude | 31000 |
| Route | EDUPO Z739 MISGO DCT DIXAT DIXAT1A |
| Aircraft | A320/M-SDE3FGHIRWY/LB1 |
Departure
| Time | 2026-05-07 02:39 |
|---|---|
| Airport | Amsterdam Airport Schiphol (EHAM) |
Arrival
| Time | 2026-05-07 03:38 |
|---|---|
| Airport | Frankfurt Main Airport (EDDF) |
| Time | Latitude | Longitude | Altitude | Speed | Heading |
|---|---|---|---|---|---|
| 2026-05-07 01:47 | 52.30509 | 4.76254 | -30 ft | 0 kts | 237° |
| 2026-05-07 02:20 | 52.30521 | 4.76287 | -3 ft | 4 kts | 240° |
| 2026-05-07 02:21 | 52.30536 | 4.76321 | -3 ft | 4 kts | 201° |
| 2026-05-07 02:21 | 52.30544 | 4.76324 | -3 ft | 0 kts | 149° |
| 2026-05-07 02:25 | 52.30543 | 4.76325 | -3 ft | 3 kts | 149° |
| 2026-05-07 02:25 | 52.30428 | 4.76439 | -3 ft | 31 kts | 148° |
| 2026-05-07 02:26 | 52.30339 | 4.76605 | -3 ft | 16 kts | 74° |
| 2026-05-07 02:26 | 52.30389 | 4.76775 | -3 ft | 19 kts | 54° |
| 2026-05-07 02:26 | 52.30469 | 4.76974 | -3 ft | 22 kts | 58° |
| 2026-05-07 02:26 | 52.30553 | 4.77191 | -3 ft | 23 kts | 58° |
| 2026-05-07 02:27 | 52.30639 | 4.77413 | -3 ft | 20 kts | 51° |
| 2026-05-07 02:27 | 52.30723 | 4.77459 | -3 ft | 20 kts | 4° |
| 2026-05-07 02:27 | 52.30921 | 4.77477 | -3 ft | 22 kts | 3° |
| 2026-05-07 02:27 | 52.31083 | 4.77493 | -3 ft | 25 kts | 3° |
| 2026-05-07 02:28 | 52.31261 | 4.77501 | -3 ft | 26 kts | 352° |
| 2026-05-07 02:28 | 52.31394 | 4.77314 | -3 ft | 26 kts | 317° |
| 2026-05-07 02:28 | 52.31464 | 4.77178 | -3 ft | 9 kts | 302° |
| 2026-05-07 02:28 | 52.31485 | 4.77093 | -3 ft | 7 kts | 279° |
| 2026-05-07 02:29 | 52.31486 | 4.77014 | -3 ft | 8 kts | 268° |
| 2026-05-07 02:29 | 52.31477 | 4.76753 | -3 ft | 35 kts | 266° |
| 2026-05-07 02:29 | 52.31461 | 4.76357 | -3 ft | 35 kts | 267° |
| 2026-05-07 02:29 | 52.31446 | 4.75959 | -3 ft | 35 kts | 266° |
| 2026-05-07 02:30 | 52.31432 | 4.75564 | -3 ft | 32 kts | 265° |
| 2026-05-07 02:30 | 52.31421 | 4.75320 | -3 ft | 33 kts | 267° |
| 2026-05-07 02:30 | 52.31413 | 4.74945 | -3 ft | 33 kts | 269° |
| 2026-05-07 02:30 | 52.31404 | 4.74740 | -3 ft | 13 kts | 259° |
| 2026-05-07 02:31 | 52.31396 | 4.74606 | -3 ft | 10 kts | 283° |
| 2026-05-07 02:31 | 52.31404 | 4.74508 | -3 ft | 7 kts | 274° |
| 2026-05-07 02:31 | 52.31400 | 4.74431 | -3 ft | 9 kts | 256° |
| 2026-05-07 02:31 | 52.31389 | 4.74263 | -3 ft | 19 kts | 271° |
| 2026-05-07 02:32 | 52.31458 | 4.74137 | -3 ft | 17 kts | 351° |
| 2026-05-07 02:32 | 52.31501 | 4.74114 | -3 ft | 0 kts | 336° |
| 2026-05-07 02:32 | 52.31575 | 4.74055 | -3 ft | 33 kts | 333° |
| 2026-05-07 02:33 | 52.31826 | 4.73885 | -3 ft | 38 kts | 358° |
| 2026-05-07 02:33 | 52.32085 | 4.73915 | -2 ft | 36 kts | 0° |
| 2026-05-07 02:33 | 52.32248 | 4.73884 | -3 ft | 12 kts | 300° |
| 2026-05-07 02:33 | 52.32240 | 4.73835 | -2 ft | 3 kts | 241° |
| 2026-05-07 02:34 | 52.32193 | 4.73757 | -3 ft | 15 kts | 255° |
| 2026-05-07 02:34 | 52.32200 | 4.73599 | -3 ft | 17 kts | 300° |
| 2026-05-07 02:34 | 52.32177 | 4.73488 | -3 ft | 16 kts | 225° |
| 2026-05-07 02:34 | 52.32166 | 4.73257 | -3 ft | 28 kts | 296° |
| 2026-05-07 02:35 | 52.32309 | 4.73044 | -3 ft | 28 kts | 321° |
| 2026-05-07 02:35 | 52.32459 | 4.72834 | -3 ft | 29 kts | 319° |
| 2026-05-07 02:35 | 52.32608 | 4.72625 | -3 ft | 28 kts | 319° |
| 2026-05-07 02:35 | 52.32745 | 4.72394 | -3 ft | 29 kts | 311° |
| 2026-05-07 02:36 | 52.32879 | 4.72146 | -3 ft | 29 kts | 311° |
| 2026-05-07 02:36 | 52.33016 | 4.71896 | -3 ft | 30 kts | 313° |
| 2026-05-07 02:36 | 52.33111 | 4.71720 | -3 ft | 13 kts | 307° |
| 2026-05-07 02:36 | 52.33143 | 4.71579 | -3 ft | 14 kts | 269° |
| 2026-05-07 02:37 | 52.33103 | 4.71453 | -3 ft | 12 kts | 225° |
| 2026-05-07 02:37 | 52.33044 | 4.71368 | -3 ft | 11 kts | 221° |
| 2026-05-07 02:37 | 52.32972 | 4.71261 | -3 ft | 17 kts | 222° |
| 2026-05-07 02:37 | 52.32888 | 4.71136 | -3 ft | 15 kts | 224° |
| 2026-05-07 02:38 | 52.32867 | 4.70980 | -3 ft | 14 kts | 272° |
| 2026-05-07 02:38 | 52.32925 | 4.70894 | -4 ft | 13 kts | 356° |
| 2026-05-07 02:38 | 52.33028 | 4.70899 | -5 ft | 16 kts | 3° |
| 2026-05-07 02:38 | 52.33065 | 4.70902 | -5 ft | 2 kts | 3° |
| 2026-05-07 02:39 | 52.33178 | 4.70912 | -5 ft | 49 kts | 3° |
| 2026-05-07 02:39 | 52.33761 | 4.70968 | -2 ft | 116 kts | 2° |
| 2026-05-07 02:39 | 52.34746 | 4.71062 | 13 ft | 167 kts | 4° |
| 2026-05-07 02:39 | 52.35896 | 4.71167 | 649 ft | 167 kts | 4° |
| 2026-05-07 02:40 | 52.37091 | 4.71313 | 1314 ft | 177 kts | 6° |
| 2026-05-07 02:40 | 52.38388 | 4.71472 | 1831 ft | 197 kts | 5° |
| 2026-05-07 02:40 | 52.39819 | 4.71606 | 2212 ft | 218 kts | 4° |
| 2026-05-07 02:40 | 52.41415 | 4.71761 | 2690 ft | 241 kts | 7° |
| 2026-05-07 02:41 | 52.43025 | 4.72658 | 3491 ft | 250 kts | 28° |
| 2026-05-07 02:41 | 52.44557 | 4.74048 | 4426 ft | 254 kts | 28° |
| 2026-05-07 02:41 | 52.46077 | 4.75555 | 5366 ft | 259 kts | 37° |
| 2026-05-07 02:41 | 52.47319 | 4.77726 | 6278 ft | 265 kts | 56° |
| 2026-05-07 02:42 | 52.48087 | 4.80496 | 7137 ft | 271 kts | 74° |
| 2026-05-07 02:42 | 52.48337 | 4.83590 | 7969 ft | 278 kts | 84° |
| 2026-05-07 02:42 | 52.48442 | 4.86792 | 8789 ft | 284 kts | 92° |
| 2026-05-07 02:42 | 52.48065 | 4.89995 | 9592 ft | 291 kts | 110° |
| 2026-05-07 02:43 | 52.47086 | 4.92931 | 10319 ft | 300 kts | 128° |
| 2026-05-07 02:43 | 52.45525 | 4.95353 | 10595 ft | 322 kts | 146° |
| 2026-05-07 02:43 | 52.43622 | 4.97527 | 10827 ft | 345 kts | 146° |
| 2026-05-07 02:43 | 52.41602 | 4.99833 | 11238 ft | 360 kts | 146° |
| 2026-05-07 02:44 | 52.39540 | 5.02200 | 11930 ft | 365 kts | 146° |
| 2026-05-07 02:44 | 52.37450 | 5.04610 | 12665 ft | 369 kts | 146° |
| 2026-05-07 02:44 | 52.35343 | 5.07047 | 13395 ft | 373 kts | 146° |
| 2026-05-07 02:44 | 52.33290 | 5.09672 | 14066 ft | 378 kts | 138° |
| 2026-05-07 02:45 | 52.31485 | 5.12829 | 14700 ft | 382 kts | 132° |
| 2026-05-07 02:45 | 52.29707 | 5.16098 | 15333 ft | 386 kts | 133° |
| 2026-05-07 02:45 | 52.27915 | 5.19362 | 15963 ft | 389 kts | 133° |
| 2026-05-07 02:45 | 52.26089 | 5.22672 | 16576 ft | 393 kts | 133° |
| 2026-05-07 02:46 | 52.24279 | 5.26038 | 17203 ft | 397 kts | 128° |
| 2026-05-07 02:46 | 52.22662 | 5.29710 | 17822 ft | 401 kts | 126° |
| 2026-05-07 02:46 | 52.21063 | 5.33395 | 18418 ft | 405 kts | 126° |
| 2026-05-07 02:46 | 52.19429 | 5.37162 | 18959 ft | 408 kts | 126° |
| 2026-05-07 02:47 | 52.17788 | 5.40949 | 19503 ft | 412 kts | 126° |
| 2026-05-07 02:47 | 52.16126 | 5.44778 | 20039 ft | 415 kts | 126° |
| 2026-05-07 02:47 | 52.14449 | 5.48616 | 20558 ft | 418 kts | 126° |
| 2026-05-07 02:47 | 52.12758 | 5.52479 | 21079 ft | 421 kts | 126° |
| 2026-05-07 02:48 | 52.11055 | 5.56370 | 21570 ft | 424 kts | 126° |
| 2026-05-07 02:48 | 52.09336 | 5.60283 | 22059 ft | 427 kts | 126° |
| 2026-05-07 02:48 | 52.07608 | 5.64218 | 22541 ft | 429 kts | 126° |
| 2026-05-07 02:48 | 52.05833 | 5.68135 | 23007 ft | 432 kts | 130° |
| 2026-05-07 02:49 | 52.03868 | 5.71846 | 23462 ft | 434 kts | 132° |
| 2026-05-07 02:49 | 52.01885 | 5.75554 | 23838 ft | 437 kts | 132° |
| 2026-05-07 02:49 | 51.99888 | 5.79275 | 24216 ft | 439 kts | 132° |
| 2026-05-07 02:49 | 51.97870 | 5.83024 | 24585 ft | 441 kts | 132° |
| 2026-05-07 02:50 | 51.95851 | 5.86765 | 24952 ft | 443 kts | 132° |
| 2026-05-07 02:50 | 51.93818 | 5.90541 | 25303 ft | 445 kts | 132° |
| 2026-05-07 02:50 | 51.91788 | 5.94323 | 25651 ft | 447 kts | 132° |
| 2026-05-07 02:50 | 51.89743 | 5.98134 | 25983 ft | 449 kts | 132° |
| 2026-05-07 02:51 | 51.87694 | 6.01953 | 26321 ft | 451 kts | 132° |
| 2026-05-07 02:51 | 51.85633 | 6.05787 | 26652 ft | 452 kts | 132° |
| 2026-05-07 02:51 | 51.83553 | 6.09635 | 26974 ft | 454 kts | 132° |
| 2026-05-07 02:51 | 51.81466 | 6.13483 | 27279 ft | 456 kts | 132° |
| 2026-05-07 02:52 | 51.79369 | 6.17328 | 27575 ft | 458 kts | 132° |
| 2026-05-07 02:52 | 51.77278 | 6.21143 | 27858 ft | 460 kts | 132° |
| 2026-05-07 02:52 | 51.75157 | 6.25011 | 28137 ft | 461 kts | 132° |
| 2026-05-07 02:52 | 51.73000 | 6.28941 | 28413 ft | 463 kts | 132° |
| 2026-05-07 02:53 | 51.70893 | 6.32782 | 28680 ft | 464 kts | 132° |
| 2026-05-07 02:53 | 51.68747 | 6.36688 | 28914 ft | 465 kts | 132° |
| 2026-05-07 02:53 | 51.66598 | 6.40577 | 29243 ft | 464 kts | 132° |
| 2026-05-07 02:53 | 51.64455 | 6.44451 | 29594 ft | 463 kts | 132° |
| 2026-05-07 02:54 | 51.62314 | 6.48320 | 29940 ft | 462 kts | 132° |
| 2026-05-07 02:54 | 51.60174 | 6.52191 | 30254 ft | 462 kts | 132° |
| 2026-05-07 02:54 | 51.58049 | 6.56046 | 30536 ft | 461 kts | 132° |
| 2026-05-07 02:54 | 51.55922 | 6.59895 | 30820 ft | 460 kts | 132° |
| 2026-05-07 02:55 | 51.53792 | 6.63740 | 30946 ft | 460 kts | 132° |
| 2026-05-07 02:55 | 51.51669 | 6.67558 | 30976 ft | 458 kts | 132° |
| 2026-05-07 02:55 | 51.47424 | 6.75172 | 30974 ft | 457 kts | 132° |
| 2026-05-07 02:56 | 51.43169 | 6.82763 | 30974 ft | 457 kts | 132° |
| 2026-05-07 02:56 | 51.38953 | 6.90375 | 30976 ft | 457 kts | 130° |
| 2026-05-07 02:57 | 51.34974 | 6.98319 | 30971 ft | 457 kts | 128° |
| 2026-05-07 02:57 | 51.31097 | 7.06374 | 30939 ft | 457 kts | 128° |
| 2026-05-07 02:58 | 51.29162 | 7.10306 | 30691 ft | 457 kts | 131° |
| 2026-05-07 02:58 | 51.26920 | 7.13893 | 30434 ft | 456 kts | 141° |
| 2026-05-07 02:58 | 51.24347 | 7.16828 | 30190 ft | 455 kts | 150° |
| 2026-05-07 02:58 | 51.21550 | 7.19176 | 29926 ft | 456 kts | 154° |
| 2026-05-07 02:59 | 51.18699 | 7.21420 | 29629 ft | 457 kts | 154° |
| 2026-05-07 02:59 | 51.15853 | 7.23683 | 29349 ft | 458 kts | 154° |
| 2026-05-07 02:59 | 51.13001 | 7.25960 | 29066 ft | 458 kts | 154° |
| 2026-05-07 02:59 | 51.10155 | 7.28233 | 28470 ft | 453 kts | 154° |
| 2026-05-07 03:00 | 51.07330 | 7.30237 | 27131 ft | 434 kts | 166° |
| 2026-05-07 03:00 | 51.04378 | 7.30738 | 25917 ft | 430 kts | 188° |
| 2026-05-07 03:00 | 51.01544 | 7.29249 | 24829 ft | 434 kts | 214° |
| 2026-05-07 03:00 | 50.98992 | 7.26801 | 24288 ft | 428 kts | 205° |
| 2026-05-07 03:01 | 50.96136 | 7.25569 | 23810 ft | 422 kts | 181° |
| 2026-05-07 03:01 | 50.93322 | 7.26264 | 23779 ft | 409 kts | 161° |
| 2026-05-07 03:01 | 50.90784 | 7.28571 | 22823 ft | 435 kts | 138° |
| 2026-05-07 03:01 | 50.88637 | 7.32037 | 22534 ft | 445 kts | 134° |
| 2026-05-07 03:02 | 50.86492 | 7.35594 | 22248 ft | 447 kts | 134° |
| 2026-05-07 03:02 | 50.84347 | 7.39152 | 21851 ft | 446 kts | 134° |
| 2026-05-07 03:02 | 50.82245 | 7.42637 | 21246 ft | 442 kts | 134° |
| 2026-05-07 03:02 | 50.80137 | 7.46132 | 20668 ft | 436 kts | 134° |
| 2026-05-07 03:03 | 50.78045 | 7.49599 | 20092 ft | 433 kts | 134° |
| 2026-05-07 03:03 | 50.75984 | 7.53021 | 18966 ft | 427 kts | 134° |
| 2026-05-07 03:03 | 50.73950 | 7.56409 | 17801 ft | 421 kts | 134° |
| 2026-05-07 03:03 | 50.71922 | 7.59693 | 16756 ft | 416 kts | 139° |
| 2026-05-07 03:04 | 50.69606 | 7.62405 | 16467 ft | 416 kts | 149° |
| 2026-05-07 03:04 | 50.67075 | 7.64580 | 16199 ft | 414 kts | 155° |
| 2026-05-07 03:04 | 50.64453 | 7.66443 | 15943 ft | 412 kts | 158° |
| 2026-05-07 03:04 | 50.61815 | 7.68204 | 15688 ft | 411 kts | 158° |
| 2026-05-07 03:05 | 50.59197 | 7.70007 | 15433 ft | 410 kts | 156° |
| 2026-05-07 03:05 | 50.56613 | 7.71901 | 15171 ft | 409 kts | 155° |
| 2026-05-07 03:05 | 50.54061 | 7.73879 | 14887 ft | 408 kts | 153° |
| 2026-05-07 03:05 | 50.51554 | 7.75900 | 13888 ft | 402 kts | 153° |
| 2026-05-07 03:06 | 50.49102 | 7.77906 | 12232 ft | 394 kts | 153° |
| 2026-05-07 03:06 | 50.46695 | 7.79886 | 11441 ft | 388 kts | 153° |
| 2026-05-07 03:06 | 50.44348 | 7.81829 | 11173 ft | 383 kts | 150° |
| 2026-05-07 03:06 | 50.42137 | 7.84209 | 10922 ft | 387 kts | 141° |
| 2026-05-07 03:07 | 50.40092 | 7.86785 | 10675 ft | 363 kts | 141° |
| 2026-05-07 03:07 | 50.38192 | 7.89154 | 10433 ft | 337 kts | 142° |
| 2026-05-07 03:07 | 50.36387 | 7.91390 | 10189 ft | 326 kts | 142° |
| 2026-05-07 03:07 | 50.34624 | 7.93559 | 9976 ft | 317 kts | 142° |
| 2026-05-07 03:08 | 50.32947 | 7.95621 | 9933 ft | 305 kts | 142° |
| 2026-05-07 03:08 | 50.31283 | 7.97664 | 9937 ft | 303 kts | 142° |
| 2026-05-07 03:08 | 50.29628 | 7.99702 | 9933 ft | 303 kts | 142° |
| 2026-05-07 03:08 | 50.27973 | 8.01743 | 9932 ft | 303 kts | 142° |
| 2026-05-07 03:09 | 50.26366 | 8.03864 | 9930 ft | 303 kts | 134° |
| 2026-05-07 03:09 | 50.25035 | 8.06409 | 9931 ft | 303 kts | 127° |
| 2026-05-07 03:09 | 50.23786 | 8.08974 | 9934 ft | 303 kts | 127° |
| 2026-05-07 03:09 | 50.23495 | 8.09568 | 9932 ft | 302 kts | 127° |
| 2026-05-07 03:10 | 50.22219 | 8.12167 | 9931 ft | 303 kts | 127° |
| 2026-05-07 03:10 | 50.20936 | 8.14769 | 9931 ft | 303 kts | 127° |
| 2026-05-07 03:10 | 50.19648 | 8.17367 | 9928 ft | 303 kts | 127° |
| 2026-05-07 03:10 | 50.18360 | 8.19973 | 9931 ft | 303 kts | 127° |
| 2026-05-07 03:11 | 50.17073 | 8.22579 | 9935 ft | 303 kts | 127° |
| 2026-05-07 03:11 | 50.15786 | 8.25174 | 9934 ft | 303 kts | 127° |
| 2026-05-07 03:11 | 50.14508 | 8.27744 | 9927 ft | 293 kts | 127° |
| 2026-05-07 03:11 | 50.13299 | 8.30186 | 9930 ft | 277 kts | 127° |
| 2026-05-07 03:12 | 50.12153 | 8.32496 | 9930 ft | 262 kts | 127° |
| 2026-05-07 03:12 | 50.11201 | 8.34854 | 9934 ft | 255 kts | 112° |
| 2026-05-07 03:12 | 50.10681 | 8.37414 | 9929 ft | 243 kts | 97° |
| 2026-05-07 03:12 | 50.10573 | 8.40094 | 9619 ft | 254 kts | 83° |
| 2026-05-07 03:13 | 50.10935 | 8.42841 | 8904 ft | 265 kts | 66° |
| 2026-05-07 03:13 | 50.11608 | 8.45496 | 8603 ft | 261 kts | 66° |
| 2026-05-07 03:13 | 50.12235 | 8.48076 | 8478 ft | 249 kts | 67° |
| 2026-05-07 03:13 | 50.12826 | 8.50557 | 8391 ft | 241 kts | 67° |
| 2026-05-07 03:14 | 50.13403 | 8.53007 | 8330 ft | 240 kts | 67° |
| 2026-05-07 03:14 | 50.13982 | 8.55444 | 8264 ft | 240 kts | 67° |
| 2026-05-07 03:14 | 50.15130 | 8.60284 | 8118 ft | 239 kts | 67° |
| 2026-05-07 03:15 | 50.15704 | 8.62714 | 8048 ft | 239 kts | 67° |
| 2026-05-07 03:15 | 50.16283 | 8.65155 | 7968 ft | 239 kts | 67° |
| 2026-05-07 03:15 | 50.16860 | 8.67589 | 7907 ft | 239 kts | 68° |
| 2026-05-07 03:15 | 50.17435 | 8.70018 | 7836 ft | 239 kts | 68° |
| 2026-05-07 03:16 | 50.18013 | 8.72451 | 7764 ft | 239 kts | 68° |
| 2026-05-07 03:16 | 50.18587 | 8.74873 | 7689 ft | 238 kts | 68° |
| 2026-05-07 03:16 | 50.19152 | 8.77255 | 7603 ft | 239 kts | 68° |
| 2026-05-07 03:16 | 50.19735 | 8.79724 | 6770 ft | 249 kts | 68° |
| 2026-05-07 03:17 | 50.20334 | 8.82289 | 5858 ft | 254 kts | 69° |
| 2026-05-07 03:17 | 50.20922 | 8.84803 | 5644 ft | 236 kts | 68° |
| 2026-05-07 03:17 | 50.21481 | 8.87182 | 5575 ft | 232 kts | 68° |
| 2026-05-07 03:17 | 50.22036 | 8.89546 | 5537 ft | 232 kts | 68° |
| 2026-05-07 03:18 | 50.22590 | 8.91903 | 5474 ft | 231 kts | 68° |
| 2026-05-07 03:18 | 50.23145 | 8.94262 | 5429 ft | 231 kts | 69° |
| 2026-05-07 03:18 | 50.23697 | 8.96615 | 5370 ft | 231 kts | 69° |
| 2026-05-07 03:18 | 50.24247 | 8.98964 | 5311 ft | 230 kts | 69° |
| 2026-05-07 03:19 | 50.24798 | 9.01311 | 5261 ft | 230 kts | 69° |
| 2026-05-07 03:19 | 50.25348 | 9.03661 | 5203 ft | 230 kts | 69° |
| 2026-05-07 03:19 | 50.25890 | 9.05980 | 5157 ft | 230 kts | 69° |
| 2026-05-07 03:19 | 50.26439 | 9.08329 | 5099 ft | 230 kts | 69° |
| 2026-05-07 03:20 | 50.26985 | 9.10674 | 5045 ft | 229 kts | 69° |
| 2026-05-07 03:20 | 50.27528 | 9.13016 | 4999 ft | 229 kts | 69° |
| 2026-05-07 03:20 | 50.28072 | 9.15361 | 4958 ft | 230 kts | 69° |
| 2026-05-07 03:20 | 50.28617 | 9.17703 | 4902 ft | 229 kts | 69° |
| 2026-05-07 03:21 | 50.29156 | 9.20043 | 4842 ft | 229 kts | 69° |
| 2026-05-07 03:21 | 50.29694 | 9.22382 | 4791 ft | 229 kts | 69° |
| 2026-05-07 03:21 | 50.30234 | 9.24723 | 4739 ft | 228 kts | 69° |
| 2026-05-07 03:21 | 50.30775 | 9.27059 | 4691 ft | 228 kts | 69° |
| 2026-05-07 03:22 | 50.31317 | 9.29392 | 4636 ft | 228 kts | 69° |
| 2026-05-07 03:22 | 50.31853 | 9.31722 | 4580 ft | 228 kts | 69° |
| 2026-05-07 03:22 | 50.32382 | 9.34056 | 4525 ft | 227 kts | 69° |
| 2026-05-07 03:22 | 50.32728 | 9.35601 | 4481 ft | 227 kts | 70° |
| 2026-05-07 03:23 | 50.33203 | 9.37961 | 4338 ft | 228 kts | 81° |
| 2026-05-07 03:23 | 50.33094 | 9.40366 | 4249 ft | 217 kts | 109° |
| 2026-05-07 03:23 | 50.32348 | 9.42324 | 4193 ft | 209 kts | 136° |
| 2026-05-07 03:23 | 50.31149 | 9.43537 | 4108 ft | 203 kts | 163° |
| 2026-05-07 03:24 | 50.29774 | 9.43808 | 4025 ft | 200 kts | 189° |
| 2026-05-07 03:24 | 50.28415 | 9.43382 | 3969 ft | 199 kts | 194° |
| 2026-05-07 03:24 | 50.27057 | 9.42931 | 3975 ft | 201 kts | 194° |
| 2026-05-07 03:24 | 50.25696 | 9.42484 | 3972 ft | 200 kts | 195° |
| 2026-05-07 03:25 | 50.24415 | 9.41715 | 3975 ft | 196 kts | 214° |
| 2026-05-07 03:25 | 50.23388 | 9.40357 | 3974 ft | 193 kts | 233° |
| 2026-05-07 03:25 | 50.22706 | 9.38578 | 3981 ft | 191 kts | 251° |
| 2026-05-07 03:25 | 50.22266 | 9.36621 | 3984 ft | 191 kts | 252° |
| 2026-05-07 03:26 | 50.21827 | 9.34693 | 3980 ft | 191 kts | 252° |
| 2026-05-07 03:26 | 50.21382 | 9.32741 | 3980 ft | 191 kts | 252° |
| 2026-05-07 03:26 | 50.20934 | 9.30790 | 3980 ft | 191 kts | 252° |
| 2026-05-07 03:26 | 50.20486 | 9.28841 | 3983 ft | 191 kts | 252° |
| 2026-05-07 03:27 | 50.20034 | 9.26890 | 3983 ft | 191 kts | 252° |
| 2026-05-07 03:27 | 50.19582 | 9.24939 | 3988 ft | 192 kts | 252° |
| 2026-05-07 03:27 | 50.19131 | 9.22987 | 3984 ft | 191 kts | 252° |
| 2026-05-07 03:27 | 50.18678 | 9.21037 | 3987 ft | 191 kts | 252° |
| 2026-05-07 03:28 | 50.18225 | 9.19088 | 3987 ft | 191 kts | 252° |
| 2026-05-07 03:28 | 50.17771 | 9.17140 | 3987 ft | 191 kts | 252° |
| 2026-05-07 03:28 | 50.17318 | 9.15187 | 3986 ft | 191 kts | 252° |
| 2026-05-07 03:28 | 50.16865 | 9.13234 | 3995 ft | 191 kts | 251° |
| 2026-05-07 03:29 | 50.16412 | 9.11287 | 3991 ft | 191 kts | 251° |
| 2026-05-07 03:29 | 50.15959 | 9.09342 | 3991 ft | 191 kts | 252° |
| 2026-05-07 03:29 | 50.15509 | 9.07412 | 3992 ft | 191 kts | 252° |
| 2026-05-07 03:29 | 50.15058 | 9.05484 | 3999 ft | 192 kts | 252° |
| 2026-05-07 03:30 | 50.14602 | 9.03538 | 4000 ft | 192 kts | 251° |
| 2026-05-07 03:30 | 50.14144 | 9.01583 | 4002 ft | 192 kts | 252° |
| 2026-05-07 03:30 | 50.13687 | 8.99634 | 4005 ft | 192 kts | 252° |
| 2026-05-07 03:30 | 50.13237 | 8.97710 | 4011 ft | 192 kts | 252° |
| 2026-05-07 03:31 | 50.12774 | 8.95733 | 4010 ft | 191 kts | 252° |
| 2026-05-07 03:31 | 50.12324 | 8.93815 | 4011 ft | 191 kts | 251° |
| 2026-05-07 03:31 | 50.11860 | 8.91874 | 4014 ft | 191 kts | 252° |
| 2026-05-07 03:31 | 50.11399 | 8.89929 | 4016 ft | 191 kts | 252° |
| 2026-05-07 03:32 | 50.10943 | 8.87989 | 4018 ft | 191 kts | 252° |
| 2026-05-07 03:32 | 50.10493 | 8.86082 | 4049 ft | 178 kts | 252° |
| 2026-05-07 03:32 | 50.10088 | 8.84365 | 3883 ft | 163 kts | 252° |
| 2026-05-07 03:32 | 50.09710 | 8.82756 | 3672 ft | 153 kts | 252° |
| 2026-05-07 03:33 | 50.09352 | 8.81236 | 3481 ft | 147 kts | 252° |
| 2026-05-07 03:33 | 50.09005 | 8.79765 | 3328 ft | 143 kts | 253° |
| 2026-05-07 03:33 | 50.08661 | 8.78303 | 3121 ft | 143 kts | 253° |
| 2026-05-07 03:33 | 50.08318 | 8.76850 | 2919 ft | 142 kts | 253° |
| 2026-05-07 03:34 | 50.07978 | 8.75411 | 2730 ft | 142 kts | 253° |
| 2026-05-07 03:34 | 50.07638 | 8.73974 | 2535 ft | 141 kts | 253° |
| 2026-05-07 03:34 | 50.07300 | 8.72544 | 2340 ft | 140 kts | 253° |
| 2026-05-07 03:34 | 50.06964 | 8.71125 | 2151 ft | 140 kts | 254° |
| 2026-05-07 03:35 | 50.06633 | 8.69726 | 1962 ft | 140 kts | 253° |
| 2026-05-07 03:35 | 50.06298 | 8.68315 | 1779 ft | 138 kts | 253° |
| 2026-05-07 03:35 | 50.05968 | 8.66921 | 1581 ft | 137 kts | 253° |
| 2026-05-07 03:35 | 50.05637 | 8.65528 | 1382 ft | 138 kts | 252° |
| 2026-05-07 03:36 | 50.05305 | 8.64128 | 1193 ft | 137 kts | 253° |
| 2026-05-07 03:36 | 50.04973 | 8.62732 | 990 ft | 138 kts | 252° |
| 2026-05-07 03:36 | 50.04642 | 8.61333 | 833 ft | 138 kts | 253° |
| 2026-05-07 03:36 | 50.04314 | 8.59964 | 660 ft | 130 kts | 252° |
| 2026-05-07 03:37 | 50.04003 | 8.58666 | 418 ft | 123 kts | 253° |
| 2026-05-07 03:37 | 50.03771 | 8.57595 | 368 ft | 68 kts | 248° |
| 2026-05-07 03:37 | 50.03609 | 8.56959 | 367 ft | 63 kts | 250° |
| 2026-05-07 03:37 | 50.03459 | 8.56311 | 365 ft | 54 kts | 250° |
| 2026-05-07 03:38 | 50.03359 | 8.55846 | 364 ft | 42 kts | 250° |
| 2026-05-07 03:38 | 50.03314 | 8.55438 | 360 ft | 35 kts | 283° |
| 2026-05-07 03:38 | 50.03347 | 8.55156 | 366 ft | 15 kts | 282° |
| 2026-05-07 03:38 | 50.03363 | 8.55048 | 369 ft | 10 kts | 283° |
| 2026-05-07 03:39 | 50.03363 | 8.54934 | 367 ft | 11 kts | 254° |
| 2026-05-07 03:39 | 50.03319 | 8.54785 | 369 ft | 22 kts | 244° |
| 2026-05-07 03:39 | 50.03274 | 8.54537 | 365 ft | 25 kts | 279° |
| 2026-05-07 03:39 | 50.03341 | 8.54450 | 369 ft | 9 kts | 342° |
| 2026-05-07 03:40 | 50.03360 | 8.54439 | 368 ft | 0 kts | 339° |
| 2026-05-07 03:40 | 50.03400 | 8.54418 | 366 ft | 26 kts | 343° |
| 2026-05-07 03:40 | 50.03658 | 8.54277 | 367 ft | 41 kts | 332° |
| 2026-05-07 03:40 | 50.03917 | 8.54189 | 369 ft | 38 kts | 24° |
| 2026-05-07 03:41 | 50.03995 | 8.54425 | 366 ft | 0 kts | 66° |